createdAt,value
2018-02-21T00:02:24.212Z,43.47
2018-02-21T00:04:51.951Z,49.40
2018-02-21T00:07:19.672Z,45.55
2018-02-21T00:09:47.451Z,54.53
2018-02-21T00:12:15.168Z,52.75
2018-02-21T00:14:42.912Z,51.28
2018-02-21T00:17:10.655Z,46.53
2018-02-21T00:19:38.416Z,49.17
2018-02-21T00:22:06.179Z,41.65
2018-02-21T00:24:33.939Z,51.63
2018-02-21T00:27:01.713Z,46.13
2018-02-21T00:29:29.428Z,48.70
2018-02-21T00:31:57.167Z,50.85
2018-02-21T00:34:24.902Z,50.33
2018-02-21T00:36:52.672Z,42.92
2018-02-21T00:39:20.388Z,52.95
2018-02-21T00:41:48.134Z,46.63
2018-02-21T00:44:15.965Z,48.95
2018-02-21T00:46:43.731Z,49.38
2018-02-21T00:49:11.491Z,51.83
2018-02-21T00:51:39.230Z,51.05
2018-02-21T00:54:06.234Z,46.03
2018-02-21T00:56:33.972Z,43.83
2018-02-21T00:59:01.736Z,46.03
2018-02-21T01:01:29.504Z,46.50
2018-02-21T01:03:57.247Z,48.87
2018-02-21T01:06:25.035Z,40.72
2018-02-21T01:08:52.771Z,41.55
2018-02-21T01:11:20.492Z,50.60
2018-02-21T01:13:48.323Z,42.33
2018-02-21T01:16:16.040Z,47.08
2018-02-21T01:18:43.779Z,51.35
2018-02-21T01:21:11.496Z,54.88
2018-02-21T01:23:39.288Z,51.67
2018-02-21T01:26:07.012Z,44.72
2018-02-21T01:28:34.759Z,52.40
2018-02-21T01:31:02.486Z,43.92
2018-02-21T01:33:30.252Z,46.50
2018-02-21T01:35:58.013Z,40.67
2018-02-21T01:38:25.775Z,51.67
2018-02-21T01:40:53.544Z,39.72
2018-02-21T01:43:21.259Z,43.95
2018-02-21T01:45:49.067Z,48.75
2018-02-21T01:48:16.794Z,45.80
2018-02-21T01:50:52.397Z,51.08
2018-02-21T01:53:20.142Z,44.05
2018-02-21T01:55:47.906Z,53.20
2018-02-21T01:58:15.633Z,48.87
2018-02-21T02:00:43.543Z,43.15
2018-02-21T02:03:11.268Z,50.25
2018-02-21T02:05:39.084Z,52.38
2018-02-21T02:08:06.812Z,42.95
2018-02-21T02:10:34.621Z,44.53
2018-02-21T02:13:02.363Z,50.53
2018-02-21T02:15:30.084Z,46.80
2018-02-21T02:17:57.872Z,47.72
2018-02-21T02:20:25.601Z,48.47
2018-02-21T02:22:53.445Z,48.87
2018-02-21T02:25:21.160Z,40.75
2018-02-21T02:27:48.904Z,48.55
2018-02-21T02:30:16.630Z,46.13
2018-02-21T02:32:44.373Z,47.10
2018-02-21T02:35:12.096Z,52.72
2018-02-21T02:37:39.924Z,51.28
2018-02-21T02:40:07.639Z,52.50
2018-02-21T02:42:35.461Z,45.88
2018-02-21T02:45:03.229Z,48.78
2018-02-21T02:47:30.948Z,58.58
2018-02-21T02:49:58.753Z,50.00
2018-02-21T02:52:26.629Z,45.58
2018-02-21T02:54:54.372Z,43.08
2018-02-21T02:57:22.148Z,51.15
2018-02-21T02:59:49.215Z,47.97
2018-02-21T03:02:16.933Z,48.55
2018-02-21T03:04:44.728Z,45.80
2018-02-21T03:07:12.444Z,50.47
2018-02-21T03:09:40.268Z,42.85
2018-02-21T03:12:08.001Z,52.60
2018-02-21T03:14:35.740Z,52.35
2018-02-21T03:17:03.565Z,46.17
2018-02-21T03:19:31.308Z,48.78
2018-02-21T03:21:59.083Z,57.50
2018-02-21T03:24:26.847Z,46.90
2018-02-21T03:26:54.588Z,46.42
2018-02-21T03:29:22.308Z,47.78
2018-02-21T03:31:50.152Z,50.10
2018-02-21T03:34:17.908Z,49.53
2018-02-21T03:36:45.644Z,52.17
2018-02-21T03:39:13.439Z,49.28
2018-02-21T03:41:41.212Z,55.22
2018-02-21T03:44:08.934Z,52.28
2018-02-21T03:46:36.741Z,54.88
2018-02-21T03:49:04.511Z,48.72
2018-02-21T03:51:32.268Z,48.13
2018-02-21T03:53:59.992Z,48.97
2018-02-21T03:56:27.738Z,51.97
2018-02-21T03:58:55.470Z,58.30
2018-02-21T04:01:23.332Z,54.70
2018-02-21T04:03:51.096Z,45.30
2018-02-21T04:06:18.866Z,56.85
2018-02-21T04:08:46.625Z,55.88
2018-02-21T04:11:14.392Z,50.50
2018-02-21T04:13:42.161Z,51.83
2018-02-21T04:16:09.881Z,46.97
2018-02-21T04:18:37.683Z,50.75
2018-02-21T04:21:05.400Z,52.67
2018-02-21T04:23:33.212Z,50.35
2018-02-21T04:26:00.982Z,54.78
2018-02-21T04:28:28.729Z,46.65
2018-02-21T04:30:56.444Z,54.85
2018-02-21T04:33:24.199Z,50.33
2018-02-21T04:35:51.944Z,56.15
2018-02-21T04:38:19.663Z,49.63
2018-02-21T04:40:47.408Z,52.25
2018-02-21T04:43:15.231Z,54.65
2018-02-21T04:45:42.973Z,44.38
2018-02-21T04:48:10.733Z,48.03
2018-02-21T04:50:38.528Z,51.42
2018-02-21T04:53:06.248Z,45.75
2018-02-21T04:55:39.604Z,48.45
2018-02-21T04:58:12.954Z,46.17
2018-02-21T05:00:40.763Z,40.22
2018-02-21T05:03:08.524Z,50.45
2018-02-21T05:05:36.283Z,48.47
2018-02-21T05:08:04.004Z,48.05
2018-02-21T05:10:31.745Z,49.85
2018-02-21T05:12:59.465Z,53.15
2018-02-21T05:15:27.345Z,43.35
2018-02-21T05:17:55.068Z,44.10
2018-02-21T05:20:22.877Z,48.65
2018-02-21T05:22:50.639Z,44.35
2018-02-21T05:25:18.356Z,59.08
2018-02-21T05:27:46.139Z,46.40
2018-02-21T05:30:13.904Z,48.87
2018-02-21T05:32:41.669Z,49.95
2018-02-21T05:35:09.400Z,51.22
2018-02-21T05:37:37.140Z,44.05
2018-02-21T05:40:04.892Z,46.60
2018-02-21T05:42:32.666Z,52.35
2018-02-21T05:45:00.433Z,49.60
2018-02-21T05:47:28.190Z,49.45
2018-02-21T05:49:55.965Z,51.42
2018-02-21T05:52:23.709Z,57.28
2018-02-21T05:54:51.495Z,48.13
2018-02-21T05:57:19.352Z,53.03
2018-02-21T05:59:47.171Z,47.10
2018-02-21T06:02:14.988Z,48.17
2018-02-21T06:04:42.757Z,55.08
2018-02-21T06:07:10.484Z,44.97
2018-02-21T06:09:38.284Z,44.20
2018-02-21T06:12:06.011Z,50.08
2018-02-21T06:14:33.764Z,47.00
2018-02-21T06:17:01.484Z,51.08
2018-02-21T06:19:29.232Z,54.13
2018-02-21T06:21:57.829Z,75.40
2018-02-21T06:24:25.568Z,51.45
2018-02-21T06:26:53.361Z,43.67
2018-02-21T06:29:21.104Z,44.67
2018-02-21T06:31:48.896Z,52.45
2018-02-21T06:34:16.665Z,45.35
2018-02-21T06:36:44.415Z,46.13
2018-02-21T06:39:12.188Z,48.92
2018-02-21T06:41:39.925Z,52.13
2018-02-21T06:44:07.641Z,58.67
2018-02-21T06:46:35.476Z,46.17
2018-02-21T06:49:03.281Z,48.60
2018-02-21T06:51:31.108Z,45.25
2018-02-21T06:53:58.881Z,45.08
2018-02-21T06:56:26.624Z,60.12
2018-02-21T06:58:54.412Z,53.65
2018-02-21T07:01:22.165Z,51.42
2018-02-21T07:03:49.885Z,43.30
2018-02-21T07:06:17.629Z,52.17
2018-02-21T07:08:45.365Z,46.60
2018-02-21T07:11:13.108Z,51.83
2018-02-21T07:13:40.828Z,46.40
2018-02-21T07:16:08.633Z,43.78
2018-02-21T07:18:36.578Z,46.10
2018-02-21T07:21:04.363Z,52.45
2018-02-21T07:23:32.160Z,40.65
2018-02-21T07:25:59.933Z,46.60
2018-02-21T07:28:27.692Z,46.15
2018-02-21T07:30:55.467Z,51.42
2018-02-21T07:33:23.235Z,43.13
2018-02-21T07:35:50.988Z,48.30
2018-02-21T07:38:18.756Z,46.85
2018-02-21T07:40:46.485Z,39.65
2018-02-21T07:43:14.228Z,44.78
2018-02-21T07:45:42.055Z,53.90
2018-02-21T07:48:09.804Z,51.13
2018-02-21T07:50:37.533Z,44.33
2018-02-21T07:53:05.284Z,38.33
2018-02-21T07:55:33.077Z,51.42
2018-02-21T07:58:00.849Z,47.40
2018-02-21T08:00:28.577Z,42.08
2018-02-21T08:02:56.405Z,39.67
2018-02-21T08:05:24.171Z,42.70
2018-02-21T08:07:51.940Z,47.80
2018-02-21T08:10:19.667Z,46.22
2018-02-21T08:12:47.392Z,46.05
2018-02-21T08:15:15.145Z,75.25
2018-02-21T08:17:42.904Z,50.83
2018-02-21T08:20:10.653Z,45.90
2018-02-21T08:22:38.495Z,56.30
2018-02-21T08:25:06.241Z,44.75
2018-02-21T08:27:34.060Z,44.85
2018-02-21T08:30:01.829Z,47.25
2018-02-21T08:32:29.555Z,52.35
2018-02-21T08:34:57.320Z,42.72
2018-02-21T08:37:25.036Z,36.70
2018-02-21T08:39:52.851Z,44.83
2018-02-21T08:42:20.648Z,42.97
2018-02-21T08:44:48.412Z,43.95
2018-02-21T08:47:16.180Z,47.90
2018-02-21T08:49:43.949Z,44.30
2018-02-21T08:52:11.606Z,48.10
2018-02-21T08:54:39.372Z,39.33
2018-02-21T08:57:07.088Z,57.40
2018-02-21T08:59:34.729Z,37.20
2018-02-21T09:02:02.394Z,35.93
2018-02-21T09:04:30.132Z,46.23
2018-02-21T09:06:57.860Z,46.60
2018-02-21T09:09:25.552Z,44.90
2018-02-21T09:11:53.316Z,41.90
2018-02-21T09:14:20.991Z,40.17
2018-02-21T09:16:48.753Z,38.20
2018-02-21T09:19:16.384Z,45.20
2018-02-21T09:21:44.045Z,41.07
2018-02-21T09:24:11.736Z,47.73
2018-02-21T09:26:39.500Z,31.57
2018-02-21T09:29:07.287Z,34.00
2018-02-21T09:31:35.000Z,34.80
2018-02-21T09:34:02.636Z,43.53
2018-02-21T09:36:30.280Z,35.13
2018-02-21T09:38:58.029Z,43.20
2018-02-21T09:41:25.784Z,39.60
2018-02-21T09:43:53.597Z,36.60
2018-02-21T09:46:21.320Z,32.67
2018-02-21T09:48:49.049Z,32.27
2018-02-21T09:51:16.746Z,25.83
2018-02-21T09:53:44.408Z,29.60
2018-02-21T09:56:12.057Z,25.50
2018-02-21T09:58:39.724Z,24.60
2018-02-21T10:01:07.366Z,30.70
2018-02-21T10:03:35.025Z,28.30
2018-02-21T10:06:02.720Z,36.03
2018-02-21T10:08:30.484Z,19.87
2018-02-21T10:10:58.219Z,32.97
2018-02-21T10:13:25.912Z,28.17
2018-02-21T10:15:53.579Z,28.27
2018-02-21T10:18:21.278Z,22.90
2018-02-21T10:20:49.076Z,22.07
2018-02-21T10:23:16.770Z,27.70
2018-02-21T10:25:44.436Z,35.83
2018-02-21T10:28:12.097Z,30.30
2018-02-21T10:30:39.756Z,23.80
2018-02-21T10:33:07.423Z,27.07
2018-02-21T10:35:35.088Z,23.13
2018-02-21T10:38:02.724Z,24.40
2018-02-21T10:40:30.482Z,24.50
2018-02-21T10:42:58.111Z,23.73
2018-02-21T10:45:25.835Z,23.10
2018-02-21T10:47:53.484Z,21.83
2018-02-21T10:50:21.164Z,20.73
2018-02-21T10:52:48.835Z,19.13
2018-02-21T10:55:16.593Z,17.80
2018-02-21T10:57:44.256Z,24.43
2018-02-21T11:00:11.916Z,18.60
2018-02-21T11:02:39.580Z,22.00
2018-02-21T11:05:07.212Z,29.00
2018-02-21T11:07:36.449Z,30.70
2018-02-21T11:10:04.108Z,32.47
2018-02-21T11:12:31.868Z,26.50
2018-02-21T11:14:59.538Z,23.80
2018-02-21T11:17:27.229Z,23.90
2018-02-21T11:19:54.961Z,28.97
2018-02-21T11:22:22.724Z,22.40
2018-02-21T11:24:50.414Z,28.43
2018-02-21T11:27:18.084Z,27.40
2018-02-21T11:29:45.816Z,28.03
2018-02-21T11:32:13.477Z,25.47
2018-02-21T11:34:41.214Z,24.70
2018-02-21T11:37:08.909Z,23.67
2018-02-21T11:39:36.557Z,28.40
2018-02-21T11:42:04.233Z,24.57
2018-02-21T11:44:32.004Z,18.90
2018-02-21T11:46:59.645Z,22.10
2018-02-21T11:49:27.308Z,21.13
2018-02-21T11:51:54.955Z,21.17
2018-02-21T11:54:22.614Z,22.40
2018-02-21T11:56:50.256Z,23.37
2018-02-21T11:59:17.976Z,23.03
2018-02-21T12:01:45.616Z,25.80
2018-02-21T12:04:13.278Z,40.07
2018-02-21T12:06:40.964Z,27.33
2018-02-21T12:09:08.633Z,28.23
2018-02-21T12:11:36.268Z,29.80
2018-02-21T12:14:03.933Z,25.77
2018-02-21T12:16:31.576Z,30.80
2018-02-21T12:18:59.280Z,34.50
2018-02-21T12:21:26.939Z,30.60
2018-02-21T12:23:54.708Z,31.60
2018-02-21T12:26:22.369Z,29.43
2018-02-21T12:28:50.136Z,31.70
2018-02-21T12:31:17.768Z,30.27
2018-02-21T12:33:45.454Z,35.10
2018-02-21T12:36:13.124Z,33.53
2018-02-21T12:38:40.765Z,25.10
2018-02-21T12:41:14.003Z,22.70
2018-02-21T12:43:41.648Z,16.20
2018-02-21T12:46:09.307Z,22.00
2018-02-21T12:48:36.968Z,19.60
2018-02-21T12:51:04.806Z,19.23
2018-02-21T12:53:32.500Z,20.57
2018-02-21T12:56:00.264Z,17.90
2018-02-21T12:58:27.929Z,21.97
2018-02-21T13:00:55.700Z,22.83
2018-02-21T13:03:23.357Z,23.20
2018-02-21T13:05:51.087Z,21.83
2018-02-21T13:08:18.970Z,22.50
2018-02-21T13:10:46.641Z,18.63
2018-02-21T13:13:14.284Z,22.30
2018-02-21T13:15:42.144Z,24.43
2018-02-21T13:18:09.793Z,22.07
2018-02-21T13:20:37.433Z,20.40
2018-02-21T13:23:05.102Z,23.53
2018-02-21T13:25:32.740Z,20.03
2018-02-21T13:28:00.498Z,21.60
2018-02-21T13:30:28.165Z,16.60
2018-02-21T13:32:55.828Z,16.73
2018-02-21T13:35:23.468Z,22.40
2018-02-21T13:37:51.134Z,16.33
2018-02-21T13:40:18.773Z,15.87
2018-02-21T13:42:46.436Z,16.90
2018-02-21T13:45:14.104Z,16.47
2018-02-21T13:47:41.800Z,17.10
2018-02-21T13:50:09.459Z,17.30
2018-02-21T13:52:37.237Z,20.93
2018-02-21T13:55:04.881Z,16.50
2018-02-21T13:57:32.540Z,13.80
2018-02-21T14:00:00.223Z,15.83
2018-02-21T14:02:27.880Z,15.20
2018-02-21T14:04:55.614Z,14.57
2018-02-21T14:07:23.299Z,10.13
2018-02-21T14:09:50.952Z,11.00
2018-02-21T14:12:18.642Z,12.77
2018-02-21T14:14:46.304Z,9.83
2018-02-21T14:17:13.941Z,9.50
2018-02-21T14:19:41.624Z,9.33
2018-02-21T14:22:09.256Z,13.27
2018-02-21T14:24:36.928Z,11.73
2018-02-21T14:27:04.604Z,13.53
2018-02-21T14:29:32.279Z,9.13
2018-02-21T14:31:59.945Z,9.80
2018-02-21T14:34:27.575Z,8.50
2018-02-21T14:36:55.232Z,8.27
2018-02-21T14:39:22.877Z,8.37
2018-02-21T14:41:50.537Z,8.60
2018-02-21T14:44:18.215Z,9.37
2018-02-21T14:46:45.885Z,7.80
2018-02-21T14:49:13.576Z,8.30
2018-02-21T14:51:41.228Z,13.50
2018-02-21T14:54:08.859Z,14.27
2018-02-21T14:56:36.534Z,9.90
2018-02-21T14:59:04.229Z,10.00
2018-02-21T15:01:31.889Z,11.53
2018-02-21T15:03:59.524Z,9.60
2018-02-21T15:06:27.221Z,9.37
2018-02-21T15:08:54.861Z,10.30
2018-02-21T15:11:22.549Z,9.03
2018-02-21T15:13:50.213Z,12.53
2018-02-21T15:16:23.574Z,10.40
2018-02-21T15:18:51.234Z,10.53
2018-02-21T15:21:18.877Z,8.17
2018-02-21T15:23:46.541Z,12.40
2018-02-21T15:26:14.261Z,11.10
2018-02-21T15:28:41.920Z,10.63
2018-02-21T15:31:09.592Z,10.87
2018-02-21T15:33:37.252Z,12.60
2018-02-21T15:36:04.917Z,12.83
2018-02-21T15:38:32.696Z,13.40
2018-02-21T15:41:00.333Z,9.97
2018-02-21T15:43:27.996Z,13.70
2018-02-21T15:45:55.636Z,15.67
2018-02-21T15:48:23.286Z,18.10
2018-02-21T15:50:50.948Z,14.30
2018-02-21T15:53:18.649Z,12.23
2018-02-21T15:55:46.313Z,16.77
2018-02-21T15:58:13.981Z,15.80
2018-02-21T16:00:41.740Z,17.17
2018-02-21T16:03:09.384Z,15.70
2018-02-21T16:05:37.045Z,16.13
2018-02-21T16:08:04.728Z,13.37
2018-02-21T16:10:32.392Z,15.50
2018-02-21T16:13:00.064Z,15.60
2018-02-21T16:15:27.819Z,17.33
2018-02-21T16:17:55.488Z,18.40
2018-02-21T16:20:23.249Z,19.10
2018-02-21T16:22:50.916Z,16.80
2018-02-21T16:25:18.553Z,21.07
2018-02-21T16:27:46.235Z,18.37
2018-02-21T16:30:13.970Z,12.17
2018-02-21T16:32:41.632Z,21.23
2018-02-21T16:35:09.335Z,24.40
2018-02-21T16:37:37.101Z,13.83
2018-02-21T16:40:04.756Z,12.07
2018-02-21T16:42:32.524Z,13.27
2018-02-21T16:45:00.165Z,11.67
2018-02-21T16:47:27.849Z,14.13
2018-02-21T16:49:55.517Z,16.87
2018-02-21T16:52:23.276Z,14.83
2018-02-21T16:54:50.950Z,16.77
2018-02-21T16:57:18.704Z,13.10
2018-02-21T16:59:46.340Z,16.37
2018-02-21T17:02:14.030Z,15.70
2018-02-21T17:04:41.672Z,13.10
2018-02-21T17:07:09.323Z,13.27
2018-02-21T17:09:37.016Z,15.00
2018-02-21T17:12:04.680Z,16.87
2018-02-21T17:14:32.348Z,20.20
2018-02-21T17:17:00.013Z,20.27
2018-02-21T17:19:27.772Z,18.73
2018-02-21T17:21:56.005Z,25.80
2018-02-21T17:24:23.717Z,16.83
2018-02-21T17:26:51.372Z,18.43
2018-02-21T17:29:19.139Z,19.40
2018-02-21T17:31:46.780Z,24.60
2018-02-21T17:34:14.436Z,21.17
2018-02-21T17:36:42.128Z,19.30
2018-02-21T17:39:09.789Z,23.50
2018-02-21T17:41:37.428Z,22.47
2018-02-21T17:44:05.118Z,21.40
2018-02-21T17:46:32.884Z,14.63
2018-02-21T17:49:00.648Z,15.50
2018-02-21T17:51:28.289Z,17.83
2018-02-21T17:53:56.081Z,20.20
2018-02-21T17:56:23.740Z,20.77
2018-02-21T17:58:51.384Z,14.77
2018-02-21T18:01:19.169Z,16.52
2018-02-21T18:03:46.839Z,18.20
2018-02-21T18:06:14.496Z,13.60
2018-02-21T18:08:42.140Z,21.37
2018-02-21T18:11:09.824Z,18.10
2018-02-21T18:13:37.485Z,19.10
2018-02-21T18:16:05.145Z,15.87
2018-02-21T18:18:32.785Z,17.30
2018-02-21T18:21:00.476Z,18.37
2018-02-21T18:23:28.121Z,13.50
2018-02-21T18:25:55.782Z,16.70
2018-02-21T18:28:23.529Z,19.47
2018-02-21T18:30:51.323Z,19.07
2018-02-21T18:33:19.024Z,19.13
2018-02-21T18:35:46.761Z,21.23
2018-02-21T18:38:14.520Z,21.08
2018-02-21T18:40:42.181Z,23.23
2018-02-21T18:43:09.828Z,22.07
2018-02-21T18:45:37.681Z,20.58
2018-02-21T18:48:05.349Z,21.47
2018-02-21T18:50:33.069Z,18.30
2018-02-21T18:53:00.913Z,26.87
2018-02-21T18:55:28.639Z,19.90
2018-02-21T18:57:56.394Z,24.73
2018-02-21T19:00:24.100Z,23.67
2018-02-21T19:02:51.841Z,21.30
2018-02-21T19:05:19.635Z,21.55
2018-02-21T19:07:47.431Z,27.92
2018-02-21T19:10:15.268Z,26.73
2018-02-21T19:12:43.105Z,25.30
2018-02-21T19:15:10.865Z,24.08
2018-02-21T19:17:39.038Z,24.65
2018-02-21T19:20:06.840Z,21.48
2018-02-21T19:22:34.565Z,26.25
2018-02-21T19:25:02.308Z,26.85
2018-02-21T19:27:30.039Z,32.03
2018-02-21T19:29:57.776Z,22.50
2018-02-21T19:32:25.504Z,26.87
2018-02-21T19:34:53.248Z,24.17
2018-02-21T19:37:20.981Z,24.85
2018-02-21T19:39:48.824Z,27.92
2018-02-21T19:42:16.543Z,24.75
2018-02-21T19:44:44.387Z,22.20
2018-02-21T19:47:12.104Z,21.35
2018-02-21T19:49:39.886Z,22.60
2018-02-21T19:52:07.608Z,27.00
2018-02-21T19:54:35.452Z,28.10
2018-02-21T19:57:03.172Z,29.02
2018-02-21T19:59:30.925Z,21.62
2018-02-21T20:01:58.743Z,24.90
2018-02-21T20:04:26.508Z,27.37
2018-02-21T20:06:54.250Z,28.30
2018-02-21T20:09:21.972Z,25.25
2018-02-21T20:11:49.804Z,23.48
2018-02-21T20:14:17.568Z,28.50
2018-02-21T20:16:45.344Z,25.62
2018-02-21T20:19:13.070Z,24.37
2018-02-21T20:21:40.844Z,40.70
2018-02-21T20:24:08.637Z,28.15
2018-02-21T20:26:36.504Z,28.65
2018-02-21T20:29:04.269Z,19.67
2018-02-21T20:31:32.015Z,30.20
2018-02-21T20:33:59.792Z,29.90
2018-02-21T20:36:27.545Z,32.53
2018-02-21T20:38:55.395Z,31.17
2018-02-21T20:41:23.197Z,28.20
2018-02-21T20:43:50.964Z,38.33
2018-02-21T20:46:18.728Z,26.27
2018-02-21T20:48:46.468Z,35.45
2018-02-21T20:51:14.195Z,34.40
2018-02-21T20:53:41.977Z,31.45
2018-02-21T20:56:09.700Z,33.03
2018-02-21T20:58:37.450Z,32.95
2018-02-21T21:01:05.179Z,31.90
2018-02-21T21:03:32.980Z,31.83
2018-02-21T21:06:00.704Z,35.92
2018-02-21T21:08:28.478Z,31.27
2018-02-21T21:10:56.277Z,30.90
2018-02-21T21:13:24.036Z,33.67
2018-02-21T21:15:51.752Z,41.28
2018-02-21T21:18:19.497Z,23.17
2018-02-21T21:20:47.331Z,25.90
2018-02-21T21:23:15.096Z,31.85
2018-02-21T21:25:42.828Z,44.95
2018-02-21T21:28:10.587Z,38.22
2018-02-21T21:30:38.320Z,28.17
2018-02-21T21:33:06.037Z,38.08
2018-02-21T21:35:33.790Z,30.02
2018-02-21T21:38:01.593Z,30.73
2018-02-21T21:40:29.336Z,26.37
2018-02-21T21:42:57.048Z,36.78
2018-02-21T21:45:24.879Z,29.92
2018-02-21T21:47:52.592Z,31.58
2018-02-21T21:50:20.313Z,27.97
2018-02-21T21:52:48.036Z,26.67
2018-02-21T21:55:15.786Z,31.70
2018-02-21T21:57:43.508Z,34.92
2018-02-21T22:00:11.274Z,32.08
2018-02-21T22:02:38.998Z,37.95
2018-02-21T22:05:06.725Z,32.20
2018-02-21T22:07:34.573Z,37.38
2018-02-21T22:10:02.336Z,33.15
2018-02-21T22:12:30.101Z,39.35
2018-02-21T22:14:57.868Z,32.90
2018-02-21T22:17:25.737Z,36.95
2018-02-21T22:19:53.658Z,33.78
2018-02-21T22:22:21.398Z,35.78
2018-02-21T22:24:49.121Z,36.40
2018-02-21T22:27:16.856Z,37.15
2018-02-21T22:29:44.572Z,39.95
2018-02-21T22:32:12.320Z,42.40
2018-02-21T22:34:40.093Z,36.45
2018-02-21T22:37:07.952Z,31.52
2018-02-21T22:39:35.673Z,28.92
2018-02-21T22:42:03.392Z,42.35
2018-02-21T22:44:31.137Z,37.40
2018-02-21T22:46:58.861Z,46.28
2018-02-21T22:49:26.671Z,41.65
2018-02-21T22:51:54.449Z,35.40
2018-02-21T22:54:22.192Z,36.83
2018-02-21T22:56:49.911Z,45.88
2018-02-21T22:59:17.660Z,43.60
2018-02-21T23:01:45.380Z,45.22
2018-02-21T23:04:13.164Z,45.33
2018-02-21T23:06:40.936Z,48.80
2018-02-21T23:09:08.706Z,40.30
2018-02-21T23:11:36.469Z,54.20
2018-02-21T23:14:04.233Z,47.70
2018-02-21T23:16:31.992Z,47.97
2018-02-21T23:18:59.707Z,46.35
2018-02-21T23:21:27.444Z,52.70
2018-02-21T23:23:55.164Z,58.40
2018-02-21T23:26:22.957Z,61.63
2018-02-21T23:28:50.711Z,54.95
2018-02-21T23:31:18.481Z,59.75
2018-02-21T23:33:46.201Z,41.20
2018-02-21T23:36:14.012Z,53.47
2018-02-21T23:38:41.727Z,46.83
2018-02-21T23:41:09.557Z,69.05
2018-02-21T23:43:37.281Z,45.65
2018-02-21T23:46:04.995Z,42.75
2018-02-21T23:48:32.889Z,52.38
2018-02-21T23:51:00.674Z,45.65
2018-02-21T23:53:28.473Z,59.97
2018-02-21T23:55:56.187Z,68.53
2018-02-21T23:58:23.935Z,45.67
